Search for airport 
image banner adimage banner adimage banner ad
image banner ad

4IA5 - Iowa Speciality Hospital

Located in Clarion, United States

ICAO - 4IA5, IATA -

Data provided by Airmate  

General information

Coordinates: N42°43'16" W93°44'4"
Elevation is 1162 feet MSL.
Magnetic variation is 04° East
View others Airports in Iowa

Operational data

Special qualification required
Current time UTC:
Current local time:
Weather at : KCAV - Clarion Muni ( 3 km )
METAR: KCAV 181655Z AUTO 06005KT 10SM CLR 29/11 A2988 RMK A01
View NOTAMs / SUP AIP / TFR affecting this airport [VIEW]
Communications frequencies: [VIEW]

Runways:

Airport contact information

Address: Clarion United States

Satellite view of 4IA5